Terminal Aerodrome Forecast
Issued by NWS

Home | Current Version | Previous Version | Text Only | Print | Product List | Glossary On
Versions: 1 2 3 4 5 6 7 8 9 10 11 12
000
FTAK31 PAJN 260500
TAFAWG
TAF
PAWG 260538Z 2606/2706 13005KT P6SM BKN060 BKN100
     FM261100 12008KT P6SM SCT035 BKN050 OVC090
     FM261600 12015KT P6SM -RA SCT020 OVC045 WS020/14025KT
     FM262100 12015G22KT 6SM -RA SCT020 OVC040
      AMD LTD TO CLD VIS AND WIND 2606/2615=

USA.gov is the U.S. government's official web portal to all federal, state and local government web resources and services.